Time;durP1;ratioP1;P1;durP2;ratioP2;P2;SDS_P1;SDS_P2;PMS_P1;PMS_P2;Temp;Humidity;BMP_temperature;BMP_pressure;BME280_temperature;BME280_humidity;BME280_pressure;Samples;Min_cycle;Max_cycle;Signal;HPM_P1;HPM_P2
2021/09/21 00:01:24;;;;;;;6.25;5.70;;;;;;;5.31;100.00;99122.70;1695619;84;20920;-60
2021/09/21 00:03:52;;;;;;;6.33;5.75;;;;;;;5.31;100.00;99125.36;1695706;84;21375;-60
2021/09/21 00:06:18;;;;;;;6.58;5.97;;;;;;;5.29;100.00;99128.80;1695441;84;21213;-60
2021/09/21 00:08:45;;;;;;;7.30;6.60;;;;;;;5.33;100.00;99130.46;1695681;84;20968;-60
2021/09/21 00:11:13;;;;;;;7.17;6.47;;;;;;;5.32;100.00;99124.86;1695761;84;20900;-60
2021/09/21 00:13:41;;;;;;;7.17;6.50;;;;;;;5.33;100.00;99133.92;1695756;84;20888;-60
2021/09/21 00:16:09;;;;;;;9.25;6.85;;;;;;;5.33;100.00;99129.94;1695756;84;20857;-60
2021/09/21 00:18:36;;;;;;;8.68;6.75;;;;;;;5.34;100.00;99124.92;1695321;84;21131;-60
2021/09/21 00:21:04;;;;;;;9.65;6.75;;;;;;;5.34;100.00;99128.91;1695418;84;27189;-60
2021/09/21 00:23:31;;;;;;;7.90;7.10;;;;;;;5.34;100.00;99132.91;1695723;84;20904;-60
2021/09/21 00:25:59;;;;;;;8.00;7.20;;;;;;;5.38;100.00;99135.91;1695762;84;21485;-61
2021/09/21 00:28:26;;;;;;;7.15;6.45;;;;;;;5.36;100.00;99133.49;1695901;84;21015;-59
2021/09/21 00:30:53;;;;;;;7.28;6.65;;;;;;;5.38;100.00;99131.38;1695599;84;21139;-60
2021/09/21 00:33:22;;;;;;;8.83;7.00;;;;;;;5.39;100.00;99132.22;1695543;84;20924;-60
2021/09/21 00:35:50;;;;;;;6.87;5.80;;;;;;;5.40;100.00;99134.35;1695299;84;20938;-61
2021/09/21 00:38:19;;;;;;;6.72;5.80;;;;;;;5.35;100.00;99137.70;1695862;84;20976;-60
2021/09/21 00:40:45;;;;;;;6.17;5.58;;;;;;;5.39;100.00;99137.55;1695574;84;20931;-60
2021/09/21 00:43:12;;;;;;;5.75;5.25;;;;;;;5.41;100.00;99137.30;1695832;84;21047;-60
2021/09/21 00:45:40;;;;;;;8.78;5.40;;;;;;;5.41;100.00;99138.63;1695535;84;20908;-60
2021/09/21 00:48:08;;;;;;;5.78;5.28;;;;;;;5.39;100.00;99134.88;1695453;84;20972;-59
2021/09/21 00:50:37;;;;;;;7.85;5.58;;;;;;;5.41;100.00;99138.63;1695634;84;20972;-61
2021/09/21 00:53:06;;;;;;;6.25;5.65;;;;;;;5.36;100.00;99141.48;1695165;84;20976;-60
2021/09/21 00:55:34;;;;;;;6.17;5.58;;;;;;;5.39;100.00;99141.53;1695447;84;20945;-61
2021/09/21 00:58:01;;;;;;;5.55;4.90;;;;;;;5.36;100.00;99137.98;1695549;84;20967;-60
2021/09/21 01:00:28;;;;;;;5.55;5.12;;;;;;;5.36;100.00;99133.49;1695359;84;20988;-61
2021/09/21 01:02:56;;;;;;;5.25;4.85;;;;;;;5.38;100.00;99127.92;1695650;84;20968;-61
2021/09/21 01:05:22;;;;;;;6.28;5.67;;;;;;;5.35;100.00;99125.73;1695636;84;20952;-60
2021/09/21 01:07:49;;;;;;;5.95;5.45;;;;;;;5.36;100.00;99126.84;1695558;84;21152;-61
2021/09/21 01:10:20;;;;;;;6.17;5.58;;;;;;;5.38;100.00;99129.25;1695320;84;20999;-60
2021/09/21 01:12:48;;;;;;;5.37;4.87;;;;;;;5.38;100.00;99131.91;1695269;84;20931;-60
2021/09/21 01:15:15;;;;;;;5.75;5.25;;;;;;;5.37;100.00;99129.78;1695479;84;21007;-61
2021/09/21 01:17:41;;;;;;;5.40;5.00;;;;;;;5.37;100.00;99130.30;1695695;84;21015;-60
2021/09/21 01:20:10;;;;;;;4.53;4.12;;;;;;;5.33;100.00;99132.59;1695325;84;21094;-60
2021/09/21 01:22:38;;;;;;;5.85;5.25;;;;;;;5.28;100.00;99125.83;1695674;84;21387;-60
2021/09/21 01:25:07;;;;;;;5.78;5.28;;;;;;;5.34;100.00;99127.58;1695398;84;21000;-60
2021/09/21 01:27:36;;;;;;;5.60;5.10;;;;;;;5.37;100.00;99142.28;1695455;84;20952;-60
2021/09/21 01:30:07;;;;;;;6.92;4.72;;;;;;;5.36;100.00;99134.82;1695561;84;20889;-60
2021/09/21 01:32:35;;;;;;;4.80;4.33;;;;;;;5.34;100.00;99134.73;1695495;84;21408;-61
2021/09/21 01:35:01;;;;;;;5.55;4.67;;;;;;;5.31;100.00;99139.99;1695948;82;20845;-61
2021/09/21 01:37:28;;;;;;;5.72;4.65;;;;;;;5.35;100.00;99139.84;1697757;84;21042;-61
2021/09/21 01:39:55;;;;;;;5.05;4.60;;;;;;;5.36;100.00;99138.81;1697556;84;20959;-60
2021/09/21 01:42:22;;;;;;;8.38;4.83;;;;;;;5.35;100.00;99140.36;1697672;84;20987;-60
2021/09/21 01:44:48;;;;;;;6.60;4.85;;;;;;;5.36;100.00;99139.31;1697717;84;21168;-61
2021/09/21 01:47:16;;;;;;;5.87;4.85;;;;;;;5.34;100.00;99135.56;1697901;84;20904;-60
2021/09/21 01:52:21;;;;;;;5.10;4.53;;;;;;;5.36;100.00;99134.82;1697657;84;20900;-60
2021/09/21 01:55:11;;;;;;;5.85;5.35;;;;;;;5.35;100.00;99127.86;1697715;84;21486;-61
2021/09/21 02:00:20;;;;;;;5.90;4.30;;;;;;;5.35;100.00;99127.86;1697683;84;20876;-62
2021/09/21 02:02:47;;;;;;;5.85;5.28;;;;;;;5.36;100.00;99128.66;1697610;84;20857;-61
2021/09/21 02:05:13;;;;;;;6.25;4.87;;;;;;;5.38;100.00;99127.39;1697803;84;20880;-62
2021/09/21 02:07:40;;;;;;;5.90;5.40;;;;;;;5.35;100.00;99130.52;1693220;84;20920;-60
2021/09/21 02:10:08;;;;;;;5.00;4.60;;;;;;;5.33;100.00;99132.59;1697705;84;21143;-60
2021/09/21 02:12:35;;;;;;;5.10;4.60;;;;;;;5.32;100.00;99128.33;1698200;84;21057;-59
2021/09/21 02:15:03;;;;;;;7.05;5.12;;;;;;;5.32;100.00;99128.86;1697498;84;20868;-60
2021/09/21 02:17:41;;;;;;;5.87;5.37;;;;;;;5.30;100.00;99130.92;1696987;84;21015;-61
2021/09/21 02:20:10;;;;;;;5.33;4.83;;;;;;;5.32;100.00;99132.84;1667394;84;20924;-61
2021/09/21 02:22:36;;;;;;;;;;;;;;;5.33;100.00;99131.80;1700559;84;21073;-61
2021/09/21 02:25:04;;;;;;;5.30;4.80;;;;;;;5.31;100.00;99131.20;1697825;84;20113;-61
2021/09/21 02:27:30;;;;;;;4.90;4.50;;;;;;;5.27;100.00;99132.20;1698070;84;20877;-60
2021/09/21 02:29:57;;;;;;;4.80;4.40;;;;;;;5.27;100.00;99146.03;1697697;84;20952;-60
2021/09/21 02:32:24;;;;;;;5.80;5.25;;;;;;;5.24;100.00;99137.98;1697718;84;21347;-60
2021/09/21 02:34:53;;;;;;;5.05;4.58;;;;;;;5.26;100.00;99135.08;1697689;84;20917;-60
2021/09/21 02:37:19;;;;;;;5.25;4.80;;;;;;;5.25;100.00;99138.80;1697731;84;21470;-61
2021/09/21 02:39:46;;;;;;;5.05;4.65;;;;;;;5.26;100.00;99135.88;1697718;84;20881;-61
2021/09/21 02:42:15;;;;;;;5.60;5.10;;;;;;;5.26;100.00;99143.86;1697763;84;21499;-61
2021/09/21 02:44:42;;;;;;;5.12;4.62;;;;;;;5.30;100.00;99131.73;1697654;84;20865;-61
2021/09/21 02:47:08;;;;;;;4.75;4.30;;;;;;;5.28;100.00;99142.31;1697777;84;21158;-61
2021/09/21 02:49:37;;;;;;;4.55;4.15;;;;;;;5.29;100.00;99143.92;1669465;84;21466;-61
2021/09/21 02:52:04;;;;;;;5.83;4.12;;;;;;;5.27;100.00;99139.37;1697900;84;20844;-61
2021/09/21 02:54:32;;;;;;;5.22;4.75;;;;;;;5.22;100.00;99145.88;1698095;84;21035;-61
2021/09/21 02:56:59;;;;;;;4.60;4.22;;;;;;;5.09;100.00;99143.71;1697744;84;20892;-62
2021/09/21 02:59:25;;;;;;;8.63;4.37;;;;;;;5.15;100.00;99144.67;1697834;84;21122;-61
2021/09/21 03:01:52;;;;;;;5.62;4.70;;;;;;;5.12;100.00;99148.60;1697776;84;20877;-61
2021/09/21 03:04:31;;;;;;;4.95;4.55;;;;;;;5.16;100.00;99147.09;1697848;84;20917;-61
2021/09/21 03:06:51;;;;;;;4.55;4.25;;;;;;;5.11;100.00;99144.30;1696402;84;20964;-61
2021/09/21 03:11:47;;;;;;;4.58;4.17;;;;;;;5.18;100.00;99149.53;1697982;84;21181;-61
2021/09/21 03:19:27;;;;;;;4.83;4.22;;;;;;;5.21;100.00;99162.37;1697915;84;20099;-61
2021/09/21 03:21:54;;;;;;;4.53;4.17;;;;;;;5.21;100.00;99157.05;1697712;84;20884;-62
2021/09/21 03:24:22;;;;;;;6.07;4.10;;;;;;;5.15;100.00;99156.64;1697991;84;21137;-61
2021/09/21 03:26:48;;;;;;;4.65;4.25;;;;;;;5.17;100.00;99151.91;1697679;84;21657;-61
2021/09/21 03:29:16;;;;;;;4.33;3.95;;;;;;;5.20;100.00;99160.77;1697928;84;20924;-60
2021/09/21 03:31:43;;;;;;;3.98;3.55;;;;;;;5.18;100.00;99160.17;1697806;84;20921;-60
2021/09/21 03:34:09;;;;;;;3.75;3.45;;;;;;;5.18;100.00;99154.05;1698053;84;20963;-60
2021/09/21 03:36:36;;;;;;;4.62;3.45;;;;;;;5.17;100.00;99154.57;1697600;83;21134;-61
2021/09/21 03:39:02;;;;;;;3.98;3.52;;;;;;;5.21;100.00;99156.24;1698042;84;20872;-62
2021/09/21 03:41:29;;;;;;;3.80;3.50;;;;;;;5.20;100.00;99154.11;1697620;84;20908;-62
2021/09/21 03:43:56;;;;;;;3.30;3.10;;;;;;;5.22;100.00;99158.69;1697874;84;20916;-61
2021/09/21 03:46:23;;;;;;;3.50;3.20;;;;;;;5.19;100.00;99159.12;1697851;84;20876;-61
2021/09/21 03:48:49;;;;;;;3.00;2.80;;;;;;;5.18;100.00;99160.17;1697882;84;21103;-60
2021/09/21 03:51:16;;;;;;;5.10;3.00;;;;;;;5.17;100.00;99162.55;1697740;84;21007;-60
2021/09/21 03:53:42;;;;;;;3.62;3.27;;;;;;;5.16;100.00;99155.06;1697836;84;20868;-60
2021/09/21 03:56:09;;;;;;;3.45;3.17;;;;;;;5.18;100.00;99154.85;1697748;84;21410;-60
2021/09/21 03:58:35;;;;;;;5.75;3.65;;;;;;;5.15;100.00;99157.45;1697968;84;20995;-60
2021/09/21 04:01:02;;;;;;;4.87;3.90;;;;;;;5.16;100.00;99155.59;1697802;84;21212;-60
2021/09/21 04:03:29;;;;;;;5.58;3.98;;;;;;;5.18;100.00;99157.52;1697679;84;20920;-61
2021/09/21 04:05:57;;;;;;;3.92;3.60;;;;;;;5.19;100.00;99157.79;1697856;84;20920;-61
2021/09/21 04:08:25;;;;;;;4.17;3.50;;;;;;;5.18;100.00;99158.84;1697945;84;20841;-61
2021/09/21 04:10:54;;;;;;;3.90;3.60;;;;;;;5.20;100.00;99158.62;1697654;84;20869;-62
2021/09/21 04:13:20;;;;;;;3.50;3.20;;;;;;;5.23;100.00;99152.31;1697934;84;21131;-61
2021/09/21 04:15:47;;;;;;;3.30;3.10;;;;;;;5.24;100.00;99155.78;1697759;84;20928;-61
2021/09/21 04:18:14;;;;;;;3.50;3.30;;;;;;;5.28;100.00;99156.42;1697588;84;20857;-60
2021/09/21 04:20:40;;;;;;;3.22;2.92;;;;;;;5.27;100.00;99154.81;1697779;84;21352;-60
2021/09/21 04:23:08;;;;;;;3.77;3.47;;;;;;;5.29;100.00;99154.08;1697891;84;20928;-61
2021/09/21 04:25:35;;;;;;;4.15;3.75;;;;;;;5.30;100.00;99151.69;1697804;84;21131;-60
2021/09/21 04:28:01;;;;;;;4.28;3.52;;;;;;;5.33;100.00;99155.75;1697982;84;20904;-60
2021/09/21 04:30:30;;;;;;;3.25;3.05;;;;;;;5.34;100.00;99154.69;1697756;84;20984;-61
2021/09/21 04:32:58;;;;;;;5.00;3.77;;;;;;;5.34;100.00;99159.52;1697762;84;20984;-61
2021/09/21 04:35:24;;;;;;;4.58;4.00;;;;;;;5.30;100.00;99158.88;1697286;84;20966;-61
2021/09/21 04:37:51;;;;;;;3.90;3.60;;;;;;;5.31;100.00;99164.47;1695294;84;21141;-61
2021/09/21 04:40:19;;;;;;;4.60;3.50;;;;;;;5.33;100.00;99165.86;1695243;84;20920;-61
2021/09/21 04:42:46;;;;;;;4.12;3.40;;;;;;;5.31;100.00;99163.14;1695525;84;21509;-60
2021/09/21 04:45:12;;;;;;;4.10;3.52;;;;;;;5.33;100.00;99159.20;1695451;84;20897;-60
2021/09/21 04:47:39;;;;;;;4.00;3.40;;;;;;;5.34;100.00;99158.69;1695489;84;20896;-60
2021/09/21 04:50:08;;;;;;;8.43;4.35;;;;;;;5.34;100.00;99168.83;1695681;84;21446;-60
2021/09/21 04:52:35;;;;;;;4.80;3.62;;;;;;;5.35;100.00;99166.45;1695588;84;20999;-61
2021/09/21 04:55:03;;;;;;;3.20;3.00;;;;;;;5.36;100.00;99161.94;1695709;84;21316;-60
2021/09/21 04:57:31;;;;;;;3.42;3.22;;;;;;;5.36;100.00;99157.44;1695653;84;21343;-60
2021/09/21 04:59:57;;;;;;;3.25;3.02;;;;;;;5.41;100.00;99157.26;1695465;84;21036;-59
2021/09/21 05:02:24;;;;;;;3.60;3.30;;;;;;;5.38;100.00;99155.87;1695516;84;21199;-60
2021/09/21 05:04:51;;;;;;;3.72;3.08;;;;;;;5.35;100.00;99159.80;1695360;84;20905;-61
2021/09/21 05:07:19;;;;;;;3.70;3.40;;;;;;;5.41;100.00;99153.27;1695707;84;20964;-60
2021/09/21 05:09:45;;;;;;;9.88;3.15;;;;;;;5.39;100.00;99154.84;1695476;84;20964;-60
2021/09/21 05:12:13;;;;;;;3.98;3.60;;;;;;;5.36;100.00;99160.11;1695468;84;21356;-60
2021/09/21 05:14:40;;;;;;;3.92;3.62;;;;;;;5.42;100.00;99153.05;1695489;84;21359;-59
2021/09/21 05:17:08;;;;;;;6.37;4.00;;;;;;;5.38;100.00;99165.18;1695499;84;20936;-59
2021/09/21 05:19:35;;;;;;;5.85;4.50;;;;;;;5.38;100.00;99144.69;1695484;84;20964;-59
2021/09/21 05:22:03;;;;;;;7.90;4.37;;;;;;;5.40;100.00;99164.44;1695689;84;20873;-59
2021/09/21 05:24:32;;;;;;;7.83;4.65;;;;;;;5.44;100.00;99160.28;1695749;84;21377;-60
2021/09/21 05:26:58;;;;;;;7.28;5.65;;;;;;;5.46;100.00;99159.52;1695560;84;21216;-60
2021/09/21 05:29:26;;;;;;;5.90;4.65;;;;;;;5.48;100.00;99156.63;1673953;84;20975;-60
2021/09/21 05:31:53;;;;;;;7.97;5.85;;;;;;;5.52;100.00;99161.80;1710168;81;20969;-60
2021/09/21 05:34:20;;;;;;;6.95;5.47;;;;;;;5.56;100.00;99162.44;1688589;84;20968;-60
2021/09/21 05:36:46;;;;;;;8.48;4.83;;;;;;;5.53;100.00;99160.22;1686399;84;21037;-59
2021/09/21 05:39:14;;;;;;;7.50;5.40;;;;;;;5.66;100.00;99160.53;1684245;84;21064;-59
2021/09/21 05:41:43;;;;;;;10.88;7.72;;;;;;;5.74;100.00;99158.05;1684281;84;20937;-59
2021/09/21 05:44:10;;;;;;;9.63;8.08;;;;;;;5.67;100.00;99157.34;1684363;84;21435;-59
2021/09/21 05:46:38;;;;;;;12.88;8.55;;;;;;;5.76;100.00;99157.30;1684361;84;21429;-59
2021/09/21 05:49:05;;;;;;;11.05;8.90;;;;;;;5.76;100.00;99161.30;1684306;84;21028;-60
2021/09/21 05:51:32;;;;;;;10.40;8.30;;;;;;;5.80;100.00;99161.91;1683101;83;21023;-60
2021/09/21 05:54:00;;;;;;;5.55;4.35;;;;;;;5.83;100.00;99167.81;1655174;85;28132;-59
2021/09/21 05:56:27;;;;;;;7.90;5.28;;;;;;;5.85;100.00;99160.41;1693972;84;21028;-59
2021/09/21 05:58:54;;;;;;;9.00;7.25;;;;;;;5.86;100.00;99170.84;1697482;84;21061;-60
2021/09/21 06:01:20;;;;;;;7.28;6.17;;;;;;;5.90;100.00;99157.85;1703952;84;20942;-58
2021/09/21 06:03:49;;;;;;;3.67;3.37;;;;;;;5.83;100.00;99166.48;1699466;84;21012;-60
2021/09/21 06:06:15;;;;;;;3.30;3.00;;;;;;;5.84;100.00;99165.45;1687220;85;21025;-60
2021/09/21 06:08:43;;;;;;;5.07;3.50;;;;;;;5.87;100.00;99162.32;1705530;84;21404;-59
2021/09/21 06:11:10;;;;;;;7.50;3.77;;;;;;;5.89;100.00;99158.91;1679131;84;21049;-59
2021/09/21 06:13:37;;;;;;;5.58;4.05;;;;;;;5.89;100.00;99153.05;1709494;83;21002;-59
2021/09/21 06:16:04;;;;;;;3.87;3.50;;;;;;;5.90;100.00;99174.64;1715474;83;21120;-59
2021/09/21 06:18:31;;;;;;;3.83;3.35;;;;;;;5.89;100.00;99177.55;1690741;83;20918;-59
2021/09/21 06:20:58;;;;;;;6.87;3.40;;;;;;;5.90;100.00;99165.31;1706744;84;21037;-59
2021/09/21 06:23:26;;;;;;;9.88;3.80;;;;;;;5.96;100.00;99171.09;1676515;85;20966;-60
2021/09/21 06:25:54;;;;;;;7.90;3.15;;;;;;;5.88;100.00;99164.77;1706769;84;26378;-60
2021/09/21 06:28:21;;;;;;;6.05;4.70;;;;;;;5.90;100.00;99177.83;1683986;84;21082;-61
2021/09/21 06:30:48;;;;;;;6.03;4.55;;;;;;;5.95;100.00;99169.98;1706547;84;20925;-60
2021/09/21 06:33:14;;;;;;;4.58;3.25;;;;;;;5.98;100.00;99170.87;1676623;85;21009;-59
2021/09/21 06:35:42;;;;;;;3.70;3.35;;;;;;;6.11;100.00;99171.95;1706219;84;20986;-59
2021/09/21 06:38:10;;;;;;;3.25;2.95;;;;;;;6.21;100.00;99170.83;1710288;83;20934;-59
2021/09/21 06:40:37;;;;;;;5.67;3.33;;;;;;;6.25;100.00;99170.34;1710874;84;21402;-59
2021/09/21 06:43:04;;;;;;;4.33;3.92;;;;;;;6.29;100.00;99176.84;1684774;84;20822;-59
2021/09/21 06:45:32;;;;;;;8.20;4.67;;;;;;;6.30;100.00;99177.95;1711248;82;21379;-59
2021/09/21 06:47:59;;;;;;;5.33;3.67;;;;;;;6.31;100.00;99183.55;1711044;83;20933;-59
2021/09/21 06:50:26;;;;;;;4.10;3.70;;;;;;;6.31;100.00;99184.89;1711112;84;20987;-59
2021/09/21 06:52:53;;;;;;;5.40;3.42;;;;;;;6.24;100.00;99188.20;1708690;84;21120;-59
2021/09/21 06:55:20;;;;;;;3.17;2.87;;;;;;;6.21;100.00;99190.81;1637947;86;21061;-59
2021/09/21 06:57:50;;;;;;;7.75;2.77;;;;;;;6.27;100.00;99189.09;1662746;86;20999;-62
2021/09/21 07:00:19;;;;;;;3.20;2.92;;;;;;;6.27;100.00;99185.09;1661552;86;21461;-59
2021/09/21 07:02:52;;;;;;;3.47;3.25;;;;;;;6.29;100.00;99198.16;1662674;86;21104;-59
2021/09/21 07:05:17;;;;;;;4.37;3.15;;;;;;;6.35;100.00;99198.57;1653136;86;21170;-59
2021/09/21 07:07:45;;;;;;;3.62;3.25;;;;;;;6.41;100.00;99201.62;1653315;86;20991;-59
2021/09/21 07:10:12;;;;;;;4.05;3.45;;;;;;;6.47;100.00;99203.86;1653538;86;21109;-59
2021/09/21 07:12:40;;;;;;;3.33;3.10;;;;;;;6.49;100.00;99206.58;1662990;86;21464;-59
2021/09/21 07:15:08;;;;;;;3.00;2.80;;;;;;;6.28;100.00;99206.69;1653457;86;21077;-59
2021/09/21 07:17:35;;;;;;;5.62;3.05;;;;;;;6.22;100.00;99206.27;1607388;86;21137;-59
2021/09/21 07:20:02;;;;;;;3.22;2.92;;;;;;;6.17;100.00;99206.16;1653339;86;21021;-59
2021/09/21 07:22:30;;;;;;;3.90;3.60;;;;;;;6.15;100.00;99217.58;1653441;86;20950;-59
2021/09/21 07:24:59;;;;;;;3.90;3.37;;;;;;;6.17;100.00;99222.16;1662522;86;21022;-59
2021/09/21 07:27:25;;;;;;;4.30;3.90;;;;;;;6.23;100.00;99213.24;1662518;84;21469;-60
2021/09/21 07:29:52;;;;;;;4.28;3.87;;;;;;;6.31;100.00;99214.73;1681462;84;21141;-59
2021/09/21 07:32:18;;;;;;;5.40;3.70;;;;;;;6.34;100.00;99218.26;1683352;84;21423;-59
2021/09/21 07:34:45;;;;;;;7.37;4.00;;;;;;;6.30;100.00;99217.13;1688260;84;20995;-59
2021/09/21 07:37:13;;;;;;;6.15;4.30;;;;;;;6.41;100.00;99215.75;1686942;84;21007;-59
2021/09/21 07:39:40;;;;;;;6.65;3.50;;;;;;;6.51;100.00;99217.02;1688393;85;20969;-59
2021/09/21 07:42:07;;;;;;;3.00;2.80;;;;;;;6.60;100.00;99224.95;1688243;84;21133;-59
2021/09/21 07:44:35;;;;;;;;;;;;;;;6.50;100.00;99226.07;1723183;83;21009;-59
2021/09/21 07:47:03;;;;;;;3.85;3.20;;;;;;;6.44;100.00;99224.64;1720522;83;20153;-60
2021/09/21 07:49:30;;;;;;;4.45;3.42;;;;;;;6.41;100.00;99227.75;1720472;83;21032;-60
2021/09/21 07:51:58;;;;;;;2.42;2.30;;;;;;;6.52;100.00;99240.79;1720258;83;20866;-60
2021/09/21 07:54:25;;;;;;;5.58;3.50;;;;;;;6.47;100.00;99229.19;1720913;82;21143;-61
2021/09/21 07:56:53;;;;;;;7.55;4.45;;;;;;;6.49;100.00;99220.44;1701449;82;27143;-60
2021/09/21 07:59:20;;;;;;;3.72;3.42;;;;;;;6.55;100.00;99228.31;1731825;82;20847;-60
2021/09/21 08:01:47;;;;;;;2.85;2.62;;;;;;;6.56;100.00;99237.12;1731713;82;20929;-61
2021/09/21 08:04:13;;;;;;;4.15;2.98;;;;;;;6.47;100.00;99222.52;1731516;82;20974;-60
2021/09/21 08:06:40;;;;;;;3.85;3.55;;;;;;;6.43;100.00;99231.00;1700666;82;21084;-60
2021/09/21 08:09:07;;;;;;;3.25;2.95;;;;;;;6.47;100.00;99226.02;1731788;82;20978;-60
2021/09/21 08:11:35;;;;;;;3.10;2.90;;;;;;;6.51;100.00;99221.81;1731774;82;20910;-61
2021/09/21 08:14:18;;;;;;;3.25;2.95;;;;;;;6.68;100.00;99231.23;1731790;82;20953;-60
2021/09/21 08:16:46;;;;;;;4.72;3.22;;;;;;;6.73;100.00;99227.86;1660324;85;20989;-60
2021/09/21 08:19:14;;;;;;;2.92;2.72;;;;;;;6.70;100.00;99215.81;1660630;85;21146;-61
2021/09/21 08:21:42;;;;;;;3.95;3.60;;;;;;;6.56;100.00;99213.92;1678301;85;20874;-61
2021/09/21 08:24:13;;;;;;;3.45;3.17;;;;;;;6.55;100.00;99226.17;1671452;85;21036;-61
2021/09/21 08:26:40;;;;;;;4.22;3.08;;;;;;;6.51;100.00;99221.02;1667881;85;21033;-61
2021/09/21 08:29:07;;;;;;;4.67;3.67;;;;;;;6.55;100.00;99230.98;1668251;85;21462;-61
2021/09/21 08:31:39;;;;;;;4.25;2.87;;;;;;;6.52;100.00;99225.32;1677846;85;21175;-61
2021/09/21 08:34:07;;;;;;;3.67;3.08;;;;;;;6.53;100.00;99228.27;1663699;85;21059;-62
2021/09/21 08:36:36;;;;;;;2.95;2.72;;;;;;;6.65;100.00;99226.38;1681769;85;20967;-59
2021/09/21 08:39:04;;;;;;;3.00;2.80;;;;;;;6.68;100.00;99225.90;1647774;86;20989;-60
2021/09/21 08:41:32;;;;;;;6.40;2.65;;;;;;;6.68;100.00;99228.56;1646459;87;21051;-60
2021/09/21 08:43:58;;;;;;;3.40;3.10;;;;;;;6.72;100.00;99232.39;1648614;87;21127;-59
2021/09/21 08:46:27;;;;;;;4.78;3.22;;;;;;;6.55;100.00;99241.64;1652122;83;21013;-60
2021/09/21 08:48:55;;;;;;;3.98;3.22;;;;;;;6.56;100.00;99227.78;1727684;83;27919;-60
2021/09/21 08:51:21;;;;;;;3.60;3.30;;;;;;;6.51;100.00;99225.81;1727487;83;21038;-60
2021/09/21 08:53:48;;;;;;;3.20;3.00;;;;;;;6.67;100.00;99220.82;1734569;81;20947;-61
2021/09/21 08:56:16;;;;;;;3.37;3.08;;;;;;;6.70;100.00;99233.15;1745285;81;21824;-61
2021/09/21 08:59:01;;;;;;;3.45;3.00;;;;;;;6.89;100.00;99242.33;1688079;85;21071;-60
2021/09/21 09:01:41;;;;;;;4.00;3.70;;;;;;;6.96;100.00;99243.80;1700268;84;21066;-60
2021/09/21 09:04:08;;;;;;;8.33;3.00;;;;;;;6.85;100.00;99245.98;1704399;83;21029;-60
2021/09/21 09:06:55;;;;;;;3.55;3.25;;;;;;;6.68;100.00;99243.77;1704771;84;20973;-61
2021/09/21 09:09:25;;;;;;;3.50;3.20;;;;;;;6.67;100.00;99246.16;1700894;84;23221;-59
2021/09/21 09:11:55;;;;;;;2.65;2.45;;;;;;;6.74;100.00;99248.17;1704347;84;21369;-59
2021/09/21 09:14:31;;;;;;;3.90;3.60;;;;;;;6.71;100.00;99249.42;1687248;85;21352;-59
2021/09/21 09:17:02;;;;;;;3.72;3.42;;;;;;;6.81;100.00;99250.99;1688196;85;20938;-59
2021/09/21 09:19:39;;;;;;;4.20;3.80;;;;;;;6.85;100.00;99253.98;1669881;84;21038;-59
2021/09/21 09:22:13;;;;;;;6.00;4.65;;;;;;;6.78;100.00;99254.11;1689288;84;21703;-58
2021/09/21 09:24:54;;;;;;;4.33;3.42;;;;;;;6.71;100.00;99248.63;1688241;82;21447;-60
2021/09/21 09:27:20;;;;;;;3.58;3.27;;;;;;;6.63;100.00;99254.61;1688078;83;20978;-61
2021/09/21 09:29:59;;;;;;;3.40;2.95;;;;;;;6.72;100.00;99256.93;1687945;84;21058;-60
2021/09/21 09:32:26;;;;;;;4.47;3.15;;;;;;;6.68;100.00;99262.44;1687348;85;20962;-61
2021/09/21 09:34:53;;;;;;;2.80;2.60;;;;;;;6.89;100.00;99257.81;1688210;85;21132;-62
2021/09/21 09:37:22;;;;;;;2.47;2.30;;;;;;;7.13;100.00;99253.20;1690147;83;21448;-60
2021/09/21 09:39:49;;;;;;;3.03;2.83;;;;;;;7.37;100.00;99259.22;1697933;84;20922;-60
2021/09/21 09:42:16;;;;;;;2.65;2.30;;;;;;;7.50;100.00;99260.81;1667790;84;21069;-60
2021/09/21 09:44:43;;;;;;;2.42;2.22;;;;;;;7.45;100.00;99266.06;1697990;84;20997;-61
2021/09/21 09:47:11;;;;;;;2.47;2.35;;;;;;;7.35;100.00;99257.84;1697332;82;21112;-60
2021/09/21 09:49:41;;;;;;;2.72;2.52;;;;;;;7.10;100.00;99271.00;1698254;83;20933;-60
2021/09/21 09:52:14;;;;;;;2.75;2.55;;;;;;;6.99;100.00;99263.34;1698460;83;21027;-60
2021/09/21 09:54:44;;;;;;;2.70;2.50;;;;;;;6.96;100.00;99267.83;1698490;83;20937;-59
2021/09/21 09:57:11;;;;;;;5.83;3.08;;;;;;;7.09;100.00;99267.53;1698363;83;21029;-59
2021/09/21 09:59:39;;;;;;;3.30;2.25;;;;;;;7.23;100.00;99261.39;1710223;84;21181;-59
2021/09/21 10:02:06;;;;;;;3.30;2.50;;;;;;;7.41;100.00;99265.72;1710123;84;21043;-59
2021/09/21 10:04:33;;;;;;;3.83;2.90;;;;;;;7.50;100.00;99261.61;1710274;84;20976;-60
2021/09/21 10:07:01;;;;;;;2.52;2.33;;;;;;;7.51;100.00;99271.23;1710315;84;22105;-59
2021/09/21 10:09:28;;;;;;;2.87;2.22;;;;;;;7.58;100.00;99255.59;1697731;84;21012;-58
2021/09/21 10:11:58;;;;;;;3.40;3.10;;;;;;;7.63;100.00;99271.70;1717095;83;21423;-58
2021/09/21 10:14:25;;;;;;;2.80;2.60;;;;;;;7.71;100.00;99272.63;1721085;83;20871;-60
2021/09/21 10:17:04;;;;;;;2.47;2.30;;;;;;;7.92;100.00;99271.12;1701369;83;20898;-60
2021/09/21 10:19:34;;;;;;;2.42;2.22;;;;;;;8.00;100.00;99283.27;1716177;83;21063;-60
2021/09/21 10:22:03;;;;;;;9.65;2.10;;;;;;;8.07;100.00;99277.23;1715626;83;20914;-60
2021/09/21 10:24:40;;;;;;;2.17;2.08;;;;;;;8.04;100.00;99284.41;1713202;83;22018;-60
2021/09/21 10:27:12;;;;;;;4.40;2.80;;;;;;;8.02;100.00;99284.64;1712371;83;20975;-60
2021/09/21 10:29:40;;;;;;;2.10;2.00;;;;;;;7.98;100.00;99275.47;1709982;83;21104;-60
2021/09/21 10:32:15;;;;;;;3.58;2.55;;;;;;;8.07;100.00;99283.38;1710954;83;21080;-60
2021/09/21 10:34:47;;;;;;;2.50;2.30;;;;;;;7.96;100.00;99281.59;1716265;83;21041;-61
2021/09/21 10:37:20;;;;;;;11.28;7.97;;;;;;;7.92;100.00;99299.98;1710297;83;21073;-60
2021/09/21 10:39:47;;;;;;;3.62;3.10;;;;;;;7.68;100.00;99291.83;1702132;83;20978;-59
2021/09/21 10:42:18;;;;;;;2.75;2.60;;;;;;;7.51;100.00;99293.13;1660412;83;20910;-60
2021/09/21 10:44:57;;;;;;;8.00;2.85;;;;;;;7.25;100.00;99291.84;1708174;83;20969;-60
2021/09/21 10:47:26;;;;;;;4.28;3.20;;;;;;;7.07;100.00;99301.65;1724907;81;20900;-60
2021/09/21 10:50:12;;;;;;;3.20;2.98;;;;;;;7.09;100.00;99301.42;1724021;82;20868;-60
2021/09/21 10:52:39;;;;;;;2.75;2.55;;;;;;;6.99;100.00;99288.69;1707296;81;20893;-60
2021/09/21 10:55:11;;;;;;;6.87;4.37;;;;;;;6.93;100.00;99302.16;1727260;81;21000;-59
2021/09/21 10:57:44;;;;;;;3.72;3.40;;;;;;;6.94;100.00;99298.45;1727176;81;20920;-59
2021/09/21 11:00:16;;;;;;;3.75;3.33;;;;;;;6.98;100.00;99297.75;1736301;81;21324;-58
2021/09/21 11:02:48;;;;;;;6.67;3.20;;;;;;;7.02;100.00;99304.75;1743319;81;20901;-60
2021/09/21 11:05:18;;;;;;;3.92;2.85;;;;;;;7.04;100.00;99302.66;1736514;81;20980;-59
2021/09/21 11:08:02;;;;;;;3.35;3.05;;;;;;;7.11;100.00;99295.86;1732987;81;20984;-59
2021/09/21 11:10:35;;;;;;;3.08;2.87;;;;;;;7.17;100.00;99305.58;1732981;81;21554;-59
2021/09/21 11:13:13;;;;;;;5.05;4.67;;;;;;;7.23;100.00;99308.64;1733134;81;20869;-60
2021/09/21 11:15:41;;;;;;;5.03;3.33;;;;;;;7.36;100.00;99309.69;1741233;81;21073;-60
2021/09/21 11:18:17;;;;;;;3.08;2.87;;;;;;;7.29;100.00;99304.48;1729645;81;21404;-59
2021/09/21 11:20:51;;;;;;;2.85;2.65;;;;;;;7.37;100.00;99307.28;1724199;82;21450;-59
2021/09/21 11:23:22;;;;;;;2.70;2.50;;;;;;;7.48;100.00;99305.10;1724216;83;20889;-59
2021/09/21 11:25:49;;;;;;;2.65;2.45;;;;;;;7.59;100.00;99300.74;1724130;83;20995;-59
2021/09/21 11:28:17;;;;;;;2.10;2.00;;;;;;;7.66;100.00;99306.75;1726193;81;21215;-60
2021/09/21 11:30:46;;;;;;;2.50;2.30;;;;;;;7.75;100.00;99309.05;1724819;81;20880;-59
2021/09/21 11:33:19;;;;;;;2.20;2.10;;;;;;;7.66;100.00;99318.77;1723898;83;20916;-60
2021/09/21 11:35:50;;;;;;;4.45;3.00;;;;;;;7.60;100.00;99314.93;1724155;83;20995;-59
2021/09/21 11:38:17;;;;;;;5.35;2.62;;;;;;;7.59;100.00;99320.77;1724755;81;21043;-59
2021/09/21 11:40:46;;;;;;;4.22;2.65;;;;;;;7.57;100.00;99303.37;1737749;81;21120;-60
2021/09/21 11:43:14;;;;;;;2.67;2.47;;;;;;;7.53;100.00;99325.75;1743952;81;20847;-60
2021/09/21 11:45:44;;;;;;;2.47;2.27;;;;;;;7.46;100.00;99323.22;1736093;81;21019;-60
2021/09/21 11:48:12;;;;;;;4.17;2.70;;;;;;;7.56;100.00;99323.13;1742113;81;20830;-59
2021/09/21 11:50:40;;;;;;;2.30;2.10;;;;;;;7.57;100.00;99328.24;1735132;81;21047;-59
2021/09/21 11:53:10;;;;;;;3.27;2.40;;;;;;;7.50;100.00;99328.91;1732593;81;21122;-59